Time;durP1;ratioP1;P1;durP2;ratioP2;P2;SDS_P1;SDS_P2;PMS_P1;PMS_P2;Temp;Humidity;BMP_temperature;BMP_pressure;BME280_temperature;BME280_humidity;BME280_pressure;Samples;Min_cycle;Max_cycle;Signal;HPM_P1;HPM_P2
2020/12/03 00:00:06;;;;;;;56.85;20.08;;;;;;;4.56;100.00;100883.47;5020150;28;20030;-87
2020/12/03 00:02:33;;;;;;;55.80;19.60;;;;;;;4.55;100.00;100875.63;5028576;28;20029;-87
2020/12/03 00:04:58;;;;;;;61.90;20.70;;;;;;;4.54;100.00;100874.78;5027158;28;20489;-87
2020/12/03 00:07:24;;;;;;;52.53;21.27;;;;;;;4.56;100.00;100878.16;5008518;28;20034;-86
2020/12/03 00:09:49;;;;;;;66.22;21.45;;;;;;;4.58;100.00;100875.38;5033218;28;20038;-87
2020/12/03 00:12:15;;;;;;;59.60;20.65;;;;;;;4.62;100.00;100874.16;5025448;28;20033;-87
2020/12/03 00:14:40;;;;;;;61.00;20.77;;;;;;;4.62;100.00;100868.84;5009636;28;20033;-87
2020/12/03 00:17:06;;;;;;;59.25;20.48;;;;;;;4.60;100.00;100862.81;5031573;28;20065;-87
2020/12/03 00:19:32;;;;;;;65.72;20.75;;;;;;;4.60;100.00;100858.34;5009212;28;20036;-87
2020/12/03 00:22:00;;;;;;;57.22;20.80;;;;;;;4.60;100.00;100846.88;5020927;28;20496;-87
2020/12/03 00:24:31;;;;;;;66.25;21.98;;;;;;;4.67;100.00;100842.75;5015402;28;20136;-86
2020/12/03 00:27:05;;;;;;;57.25;20.70;;;;;;;4.65;100.00;100834.88;5031581;28;20091;-87
2020/12/03 00:29:31;;;;;;;48.30;19.10;;;;;;;4.64;100.00;100833.19;5024760;28;20122;-87
2020/12/03 00:31:56;;;;;;;59.05;21.08;;;;;;;4.65;100.00;100829.56;4995155;28;20108;-87
2020/12/03 00:34:22;;;;;;;67.07;20.95;;;;;;;4.66;100.00;100825.94;5015903;28;20483;-87
2020/12/03 00:36:47;;;;;;;53.20;21.50;;;;;;;4.67;100.00;100816.16;5016937;28;20708;-87
2020/12/03 00:39:14;;;;;;;51.15;20.33;;;;;;;4.68;100.00;100815.19;5029850;28;20099;-87
2020/12/03 00:41:40;;;;;;;59.78;19.83;;;;;;;4.73;100.00;100810.31;5013086;28;20485;-87
2020/12/03 00:44:06;;;;;;;54.50;19.48;;;;;;;4.71;100.00;100803.44;5022492;28;20060;-87
2020/12/03 00:46:34;;;;;;;47.92;18.85;;;;;;;4.75;100.00;100799.56;5032304;28;20029;-87
2020/12/03 00:49:00;;;;;;;57.38;20.30;;;;;;;4.73;100.00;100797.03;5012169;28;20409;-87
2020/12/03 00:51:26;;;;;;;51.72;17.85;;;;;;;4.78;100.00;100791.34;5026072;28;20332;-86
2020/12/03 00:53:52;;;;;;;48.95;18.27;;;;;;;4.81;100.00;100796.38;5025883;28;20041;-87
2020/12/03 00:56:18;;;;;;;57.58;19.27;;;;;;;4.80;100.00;100800.84;5025706;28;20049;-87
2020/12/03 00:58:46;;;;;;;47.83;17.33;;;;;;;4.80;100.00;100790.22;5002085;28;20041;-87
2020/12/03 01:01:12;;;;;;;50.13;17.10;;;;;;;4.80;100.00;100792.03;5033063;28;20021;-87
2020/12/03 01:03:38;;;;;;;36.35;15.90;;;;;;;4.82;100.00;100785.63;5015253;28;20401;-87
2020/12/03 01:06:04;;;;;;;43.15;15.55;;;;;;;4.82;100.00;100780.31;5029008;28;20504;-87
2020/12/03 01:08:29;;;;;;;50.67;17.25;;;;;;;4.82;100.00;100775.00;5032334;28;20034;-87
2020/12/03 01:10:54;;;;;;;41.45;15.57;;;;;;;4.87;100.00;100774.56;5023130;28;20484;-87
2020/12/03 01:13:22;;;;;;;45.20;16.00;;;;;;;4.88;100.00;100779.78;5032093;28;20037;-87
2020/12/03 01:15:47;;;;;;;43.95;15.40;;;;;;;4.89;100.00;100772.66;5023685;28;20073;-87
2020/12/03 01:18:13;;;;;;;38.63;14.45;;;;;;;4.94;100.00;100765.97;5036789;28;20460;-87
2020/12/03 01:20:39;;;;;;;45.80;13.90;;;;;;;4.96;100.00;100762.31;5029353;28;20034;-88
2020/12/03 01:23:04;;;;;;;37.67;13.52;;;;;;;5.00;100.00;100769.06;5015985;28;20026;-87
2020/12/03 01:25:30;;;;;;;40.97;14.68;;;;;;;4.96;100.00;100759.66;5023426;28;20117;-88
2020/12/03 01:27:56;;;;;;;45.30;13.20;;;;;;;4.96;100.00;100747.22;5031535;28;20124;-88
2020/12/03 01:30:21;;;;;;;40.72;12.63;;;;;;;5.02;100.00;100753.81;5018704;28;20124;-87
2020/12/03 01:32:47;;;;;;;39.63;13.15;;;;;;;5.06;100.00;100750.75;5022981;28;20037;-87
2020/12/03 01:35:15;;;;;;;42.83;12.20;;;;;;;5.08;100.00;100746.16;5014880;28;20091;-87
2020/12/03 01:37:41;;;;;;;37.88;12.60;;;;;;;5.10;100.00;100749.53;5018743;28;20041;-87
2020/12/03 01:40:09;;;;;;;50.92;12.48;;;;;;;5.08;100.00;100742.66;5042255;28;20080;-87
2020/12/03 01:42:38;;;;;;;41.05;13.10;;;;;;;5.11;100.00;100745.03;5022269;28;20496;-87
2020/12/03 01:45:44;;;;;;;45.03;13.10;;;;;;;5.10;100.00;100738.88;5031620;28;20049;-87
2020/12/03 01:48:21;;;;;;;40.03;12.90;;;;;;;5.11;100.00;100737.91;5030250;28;20468;-87
2020/12/03 01:50:48;;;;;;;34.97;13.23;;;;;;;5.06;100.00;100732.16;5030328;28;20064;-87
2020/12/03 01:53:16;;;;;;;45.92;15.07;;;;;;;5.06;100.00;100723.31;5030256;28;20026;-88
2020/12/03 01:55:42;;;;;;;37.40;12.88;;;;;;;5.04;100.00;100725.28;5031792;28;20128;-87
2020/12/03 01:58:20;;;;;;;58.58;15.52;;;;;;;5.04;100.00;100722.63;5031174;28;20476;-88
2020/12/03 02:00:46;;;;;;;40.90;14.20;;;;;;;5.04;100.00;100726.13;5029922;28;20030;-88
2020/12/03 02:03:12;;;;;;;62.17;16.70;;;;;;;5.05;100.00;100724.31;5031790;28;20039;-87
2020/12/03 02:05:37;;;;;;;54.20;15.70;;;;;;;5.01;100.00;100717.56;5031309;28;20032;-87
2020/12/03 02:08:03;;;;;;;47.65;15.45;;;;;;;5.06;100.00;100710.88;5031184;28;20045;-88
2020/12/03 02:10:28;;;;;;;45.47;17.10;;;;;;;5.00;100.00;100706.09;5030226;28;20033;-87
2020/12/03 02:12:54;;;;;;;60.63;16.60;;;;;;;4.96;100.00;100703.84;5030183;28;20033;-88
2020/12/03 02:15:21;;;;;;;63.45;19.10;;;;;;;4.94;100.00;100688.88;5013602;28;20044;-88
2020/12/03 02:17:47;;;;;;;52.30;18.02;;;;;;;4.94;100.00;100685.38;5018902;28;20056;-88
2020/12/03 02:20:17;;;;;;;59.58;18.08;;;;;;;4.94;100.00;100675.56;5031562;28;20053;-88
2020/12/03 02:22:43;;;;;;;63.42;18.83;;;;;;;4.94;100.00;100672.06;5030215;28;20055;-88
2020/12/03 02:25:10;;;;;;;61.13;19.52;;;;;;;4.95;100.00;100671.09;5031236;28;20679;-88
2020/12/03 02:27:36;;;;;;;65.05;21.02;;;;;;;4.96;100.00;100664.78;5030712;28;20120;-88
2020/12/03 02:30:04;;;;;;;64.45;18.88;;;;;;;5.01;100.00;100654.59;5030751;28;20037;-88
2020/12/03 02:32:29;;;;;;;51.55;18.90;;;;;;;4.97;100.00;100642.56;5030768;28;20030;-88
2020/12/03 02:34:55;;;;;;;51.42;18.13;;;;;;;4.97;100.00;100647.03;5026048;28;20110;-88
2020/12/03 02:37:29;;;;;;;57.67;20.30;;;;;;;4.97;100.00;100634.59;5029290;28;20444;-88
2020/12/03 02:39:55;;;;;;;46.65;17.33;;;;;;;5.01;100.00;100625.34;5030232;28;20103;-88
2020/12/03 02:42:20;;;;;;;57.20;19.05;;;;;;;5.02;100.00;100628.84;5030941;28;20500;-87
2020/12/03 02:44:48;;;;;;;51.47;15.70;;;;;;;5.02;100.00;100620.88;5030915;28;20040;-87
2020/12/03 02:47:17;;;;;;;56.33;16.90;;;;;;;4.99;100.00;100614.03;5030890;28;20040;-88
2020/12/03 02:49:44;;;;;;;57.58;17.42;;;;;;;4.97;100.00;100605.34;5029662;28;20042;-88
2020/12/03 02:52:13;;;;;;;45.35;16.42;;;;;;;5.02;100.00;100603.13;5029187;28;20041;-88
2020/12/03 02:54:41;;;;;;;54.00;15.50;;;;;;;5.03;100.00;100601.31;5030160;28;20030;-87
2020/12/03 02:57:08;;;;;;;52.72;16.90;;;;;;;5.05;100.00;100596.69;5030116;28;20124;-87
2020/12/03 02:59:35;;;;;;;48.22;16.27;;;;;;;5.03;100.00;100590.66;5031041;28;20065;-88
2020/12/03 03:02:03;;;;;;;45.08;15.82;;;;;;;5.05;100.00;100591.38;5030974;28;20037;-88
2020/12/03 03:04:29;;;;;;;48.28;15.60;;;;;;;5.06;100.00;100579.75;5030659;28;20037;-88
2020/12/03 03:07:01;;;;;;;46.95;14.88;;;;;;;5.07;100.00;100568.13;5030559;28;20041;-88
2020/12/03 03:09:35;;;;;;;43.83;14.95;;;;;;;5.16;100.00;100567.31;5018401;28;20437;-88
2020/12/03 03:12:01;;;;;;;40.38;14.85;;;;;;;5.11;100.00;100556.25;5029323;28;20115;-88
2020/12/03 03:14:27;;;;;;;37.28;14.20;;;;;;;5.15;100.00;100563.81;5029493;28;20061;-88
2020/12/03 03:16:53;;;;;;;48.17;14.13;;;;;;;5.11;100.00;100559.72;5016960;28;20208;-88
2020/12/03 03:19:19;;;;;;;45.70;14.75;;;;;;;5.19;100.00;100557.25;5029520;28;20493;-87
2020/12/03 03:21:45;;;;;;;38.28;14.40;;;;;;;5.16;100.00;100546.03;5030516;28;20039;-88
2020/12/03 03:24:11;;;;;;;33.47;13.15;;;;;;;5.12;100.00;100556.13;5029475;28;20021;-88
2020/12/03 03:26:37;;;;;;;37.55;13.27;;;;;;;5.14;100.00;100550.66;5029959;28;20033;-88
2020/12/03 03:29:04;;;;;;;46.08;14.15;;;;;;;5.21;100.00;100546.44;5030940;28;20029;-88
2020/12/03 03:31:30;;;;;;;38.92;13.48;;;;;;;5.19;100.00;100538.63;5029673;28;20441;-87
2020/12/03 03:33:56;;;;;;;36.05;13.75;;;;;;;5.19;100.00;100540.44;5027498;28;20033;-87
2020/12/03 03:36:21;;;;;;;34.58;12.07;;;;;;;5.22;100.00;100534.00;5031694;28;20490;-88
2020/12/03 03:38:47;;;;;;;34.25;12.60;;;;;;;5.21;100.00;100533.16;5030565;28;20042;-88
2020/12/03 03:41:12;;;;;;;32.42;12.05;;;;;;;5.29;100.00;100525.31;5029636;28;20040;-88
2020/12/03 03:43:38;;;;;;;36.47;12.90;;;;;;;5.33;100.00;100529.41;5029326;28;20507;-88
2020/12/03 03:46:04;;;;;;;44.15;12.23;;;;;;;5.36;100.00;100525.59;5029159;28;20045;-88
2020/12/03 03:48:30;;;;;;;32.53;10.48;;;;;;;5.34;100.00;100523.09;5031640;28;20065;-88
2020/12/03 03:50:56;;;;;;;29.77;10.75;;;;;;;5.31;100.00;100517.19;5029453;28;20077;-88
2020/12/03 03:53:21;;;;;;;29.95;11.32;;;;;;;5.30;100.00;100526.16;5024009;28;20034;-88
2020/12/03 03:55:47;;;;;;;26.98;10.38;;;;;;;5.32;100.00;100513.56;5024359;28;20087;-88
2020/12/03 03:58:12;;;;;;;30.45;11.95;;;;;;;5.34;100.00;100515.09;5023483;28;20135;-88
2020/12/03 04:00:42;;;;;;;32.28;11.35;;;;;;;5.42;100.00;100501.94;5003030;28;20105;-88
2020/12/03 04:03:13;;;;;;;30.10;10.75;;;;;;;5.44;100.00;100504.47;5017661;28;20382;-88
2020/12/03 04:05:40;;;;;;;31.67;10.60;;;;;;;5.44;100.00;100493.81;5002681;28;20037;-88
2020/12/03 04:08:06;;;;;;;37.78;12.90;;;;;;;5.39;100.00;100496.06;5021124;28;20041;-88
2020/12/03 04:10:32;;;;;;;27.88;10.93;;;;;;;5.34;100.00;100483.19;5021033;28;20034;-88
2020/12/03 04:12:57;;;;;;;28.67;10.23;;;;;;;5.38;100.00;100468.63;5026083;28;20409;-88
2020/12/03 04:15:23;;;;;;;27.77;10.18;;;;;;;5.35;100.00;100468.91;5026608;28;20048;-87
2020/12/03 04:17:48;;;;;;;32.75;11.73;;;;;;;5.32;100.00;100453.25;5036845;28;20037;-84
2020/12/03 04:20:15;;;;;;;25.70;10.32;;;;;;;5.33;100.00;100446.09;5013759;28;20468;-88
2020/12/03 04:22:43;;;;;;;33.22;9.88;;;;;;;5.29;100.00;100442.03;5020837;28;20045;-88
2020/12/03 04:25:09;;;;;;;32.63;10.82;;;;;;;5.29;100.00;100431.41;5032831;28;20624;-87
2020/12/03 04:27:34;;;;;;;28.02;10.88;;;;;;;5.26;100.00;100421.88;5019321;28;20128;-88
2020/12/03 04:30:00;;;;;;;31.40;11.13;;;;;;;5.25;100.00;100417.53;5031763;28;20118;-87
2020/12/03 04:32:25;;;;;;;30.15;11.23;;;;;;;5.25;100.00;100396.25;5032174;28;20072;-87
2020/12/03 04:34:51;;;;;;;36.45;11.20;;;;;;;5.23;100.00;100400.06;5020341;28;20070;-87
2020/12/03 04:37:16;;;;;;;32.05;10.75;;;;;;;5.18;100.00;100401.31;5020168;28;20123;-87
2020/12/03 04:39:42;;;;;;;33.90;10.75;;;;;;;5.16;100.00;100399.78;5015816;28;20038;-87
2020/12/03 04:42:27;;;;;;;28.08;11.68;;;;;;;5.17;100.00;100401.44;5032893;28;20040;-87
2020/12/03 04:44:56;;;;;;;30.92;11.18;;;;;;;5.10;100.00;100397.69;5033064;28;20041;-87
2020/12/03 04:47:40;;;;;;;24.92;11.18;;;;;;;5.11;100.00;100399.34;5031555;28;20481;-88
2020/12/03 04:50:15;;;;;;;29.27;11.57;;;;;;;5.13;100.00;100403.56;5018504;28;20120;-87
2020/12/03 04:52:58;;;;;;;27.85;10.70;;;;;;;5.19;100.00;100410.97;5031829;28;20136;-88
2020/12/03 04:55:31;;;;;;;41.20;12.45;;;;;;;5.19;100.00;100396.84;5033090;28;20497;-88
2020/12/03 04:58:06;;;;;;;28.10;11.68;;;;;;;5.24;100.00;100399.06;5031219;28;20487;-88
2020/12/03 05:00:40;;;;;;;28.45;10.00;;;;;;;5.25;100.00;100390.94;5032828;28;20498;-87
2020/12/03 05:03:26;;;;;;;32.85;12.13;;;;;;;5.24;100.00;100381.28;5019170;28;20057;-84
2020/12/03 05:06:04;;;;;;;29.55;10.68;;;;;;;5.22;100.00;100379.75;5033016;28;20040;-86
2020/12/03 05:08:37;;;;;;;30.88;11.15;;;;;;;5.26;100.00;100381.13;5032770;28;20090;-88
2020/12/03 05:11:13;;;;;;;36.10;12.07;;;;;;;5.20;100.00;100362.13;5031289;28;20462;-88
2020/12/03 05:13:48;;;;;;;35.03;12.82;;;;;;;5.22;100.00;100351.34;5031264;28;20523;-87
2020/12/03 05:16:19;;;;;;;29.90;11.63;;;;;;;5.20;100.00;100350.63;5024222;28;20121;-87
2020/12/03 05:18:53;;;;;;;31.63;11.95;;;;;;;5.16;100.00;100349.25;5028333;28;20083;-88
2020/12/03 05:21:23;;;;;;;28.88;11.48;;;;;;;5.24;100.00;100341.41;5032487;28;20029;-88
2020/12/03 05:23:49;;;;;;;27.70;11.75;;;;;;;5.18;100.00;100353.44;5031906;28;20120;-88
2020/12/03 05:26:19;;;;;;;28.38;12.57;;;;;;;5.18;100.00;100342.81;5031560;28;20116;-87
2020/12/03 05:29:04;;;;;;;35.40;13.02;;;;;;;5.20;100.00;100340.00;5030915;28;20048;-88
2020/12/03 05:31:33;;;;;;;29.73;12.15;;;;;;;5.23;100.00;100334.41;5032069;28;20036;-88
2020/12/03 05:34:09;;;;;;;31.08;12.88;;;;;;;5.17;100.00;100325.19;5027010;28;20037;-88
2020/12/03 05:36:58;;;;;;;38.25;12.93;;;;;;;5.16;100.00;100309.34;5031738;28;20050;-87
2020/12/03 05:39:27;;;;;;;39.30;13.38;;;;;;;5.16;100.00;100309.34;5031816;28;20041;-87
2020/12/03 05:41:57;;;;;;;23.98;11.50;;;;;;;5.19;100.00;100303.75;5031922;28;20364;-88
2020/12/03 05:44:40;;;;;;;31.38;11.88;;;;;;;5.17;100.00;100303.03;5031447;28;20417;-88
2020/12/03 05:47:20;;;;;;;30.70;11.80;;;;;;;5.14;100.00;100298.03;5031446;28;20029;-88
2020/12/03 05:49:48;;;;;;;26.65;11.75;;;;;;;5.10;100.00;100291.31;5031438;28;20496;-88
2020/12/03 05:52:18;;;;;;;31.30;12.30;;;;;;;5.10;100.00;100286.00;5031860;28;20029;-88
2020/12/03 05:55:02;;;;;;;28.65;12.65;;;;;;;5.08;100.00;100288.81;5031874;28;20124;-88
2020/12/03 05:57:43;;;;;;;33.15;12.32;;;;;;;5.07;100.00;100280.97;5030883;28;20078;-88
2020/12/03 06:00:13;;;;;;;32.22;12.20;;;;;;;5.09;100.00;100287.84;5031800;28;20034;-88
2020/12/03 06:03:00;;;;;;;32.90;12.60;;;;;;;5.02;100.00;100269.94;5030309;28;20033;-88
2020/12/03 06:05:46;;;;;;;32.95;12.73;;;;;;;5.03;100.00;100267.16;5031634;28;20104;-88
2020/12/03 06:08:23;;;;;;;;;;;;;;;5.00;100.00;100264.75;5015317;28;20098;-90
2020/12/03 06:11:10;;;;;;;30.17;12.20;;;;;;;4.91;100.00;100244.34;5031709;28;20008;-89
2020/12/03 06:13:51;;;;;;;32.05;13.15;;;;;;;4.88;100.00;100237.53;5030346;28;20036;-89
2020/12/03 06:16:39;;;;;;;36.10;14.35;;;;;;;4.90;100.00;100234.72;5006284;28;20025;-88
2020/12/03 06:19:25;;;;;;;48.53;14.45;;;;;;;4.92;100.00;100233.59;5029035;28;20033;-88
2020/12/03 06:21:58;;;;;;;41.13;14.82;;;;;;;4.82;100.00;100232.78;5030187;28;20083;-89
2020/12/03 06:24:46;;;;;;;39.10;14.88;;;;;;;4.90;100.00;100237.38;5031036;28;20041;-89
2020/12/03 06:27:25;;;;;;;38.42;14.50;;;;;;;4.83;100.00;100221.19;5030792;28;20351;-89
2020/12/03 06:29:58;;;;;;;44.10;16.02;;;;;;;4.85;100.00;100231.66;5014061;28;20037;-89
2020/12/03 06:32:42;;;;;;;30.38;15.48;;;;;;;4.90;100.00;100219.59;5031484;28;20182;-89
2020/12/03 06:35:28;;;;;;;49.85;15.50;;;;;;;4.83;100.00;100210.53;5027786;28;20033;-89
2020/12/03 06:38:14;;;;;;;49.28;16.02;;;;;;;4.81;100.00;100207.19;5035143;28;20534;-87
2020/12/03 06:40:45;;;;;;;46.80;17.88;;;;;;;4.85;100.00;100200.59;5020353;28;20037;-87
2020/12/03 06:43:18;;;;;;;42.30;16.48;;;;;;;4.84;100.00;100204.25;5030150;28;20033;-88
2020/12/03 06:46:03;;;;;;;46.85;15.40;;;;;;;4.82;100.00;100195.59;5031098;28;20033;-85
2020/12/03 06:48:53;;;;;;;36.72;15.60;;;;;;;4.74;100.00;100192.81;5030822;28;20504;-86
2020/12/03 06:51:37;;;;;;;36.67;14.68;;;;;;;4.83;100.00;100191.94;5029278;28;20033;-87
2020/12/03 06:54:23;;;;;;;37.67;15.85;;;;;;;4.81;100.00;100190.41;5029299;28;20034;-89
2020/12/03 06:57:00;;;;;;;;;;;;;;;4.79;100.00;100182.59;5030900;28;20086;-87
2020/12/03 06:59:30;;;;;;;37.25;15.77;;;;;;;4.82;100.00;100184.09;5031204;28;20118;-86
2020/12/03 07:02:28;;;;;;;46.30;15.70;;;;;;;4.72;100.00;100176.19;5031022;28;20407;-89
2020/12/03 07:05:08;;;;;;;36.45;15.52;;;;;;;4.78;100.00;100180.06;5013235;28;20037;-88
2020/12/03 07:07:42;;;;;;;41.42;15.95;;;;;;;4.72;100.00;100172.66;5030617;28;20042;-85
2020/12/03 07:10:49;;;;;;;42.30;16.25;;;;;;;4.69;100.00;100179.13;5030699;28;20040;-87
2020/12/03 07:13:46;;;;;;;32.05;14.95;;;;;;;4.70;100.00;100172.81;5030769;28;20041;-87
2020/12/03 07:16:38;;;;;;;43.13;15.02;;;;;;;4.73;100.00;100169.03;5007120;28;20374;-87
2020/12/03 07:19:31;;;;;;;44.55;15.45;;;;;;;4.69;100.00;100163.19;5031199;28;20059;-88
2020/12/03 07:22:06;;;;;;;39.13;15.60;;;;;;;4.66;100.00;100156.31;5030465;28;20436;-89
2020/12/03 07:24:35;;;;;;;41.50;16.27;;;;;;;4.72;100.00;100146.09;5029628;28;20038;-90
2020/12/03 07:27:27;;;;;;;43.92;16.30;;;;;;;4.71;100.00;100131.97;5028688;28;20040;-86
2020/12/03 07:30:08;;;;;;;42.90;16.55;;;;;;;4.71;100.00;100137.28;5028963;28;20308;-89
2020/12/03 07:32:35;;;;;;;44.03;15.07;;;;;;;4.76;100.00;100129.72;5026977;28;20122;-90
2020/12/03 07:35:11;;;;;;;35.30;15.20;;;;;;;4.76;100.00;100136.84;5013093;28;20045;-90
2020/12/03 07:37:39;;;;;;;40.08;15.48;;;;;;;4.80;100.00;100130.25;5036021;28;20044;-89
2020/12/03 07:40:33;;;;;;;41.70;15.75;;;;;;;4.73;100.00;100123.88;5031017;28;20049;-89
2020/12/03 07:43:23;;;;;;;33.15;15.10;;;;;;;4.78;100.00;100132.25;5017999;28;20554;-89
2020/12/03 07:45:50;;;;;;;35.22;16.00;;;;;;;4.74;100.00;100126.38;5034673;28;20037;-89
2020/12/03 07:48:23;;;;;;;51.55;17.38;;;;;;;4.77;100.00;100128.75;5032878;28;20033;-88
2020/12/03 07:51:08;;;;;;;51.72;17.80;;;;;;;4.80;100.00;100120.47;5034535;28;20373;-90
2020/12/03 07:53:35;;;;;;;38.05;15.55;;;;;;;4.92;100.00;100129.09;5023122;23;20061;-69
2020/12/03 07:56:42;;;;;;;39.53;17.08;;;;;;;4.94;100.00;100122.66;5046830;28;20041;-68
2020/12/03 07:59:23;;;;;;;39.55;16.48;;;;;;;4.89;100.00;100127.56;5050718;28;20033;-69
2020/12/03 08:01:50;;;;;;;41.22;16.35;;;;;;;4.93;100.00;100115.66;5040794;28;20037;-69
2020/12/03 08:04:17;;;;;;;47.30;17.85;;;;;;;4.94;100.00;100113.84;5067132;28;20337;-69
2020/12/03 08:07:08;;;;;;;42.15;17.17;;;;;;;4.94;100.00;100112.00;5049152;28;20052;-69
2020/12/03 08:09:42;;;;;;;46.05;17.40;;;;;;;4.99;100.00;100111.56;5037829;28;20378;-69
2020/12/03 08:12:11;;;;;;;45.22;18.92;;;;;;;5.01;100.00;100100.78;5064690;28;20133;-69
2020/12/03 08:14:38;;;;;;;50.95;18.00;;;;;;;5.00;100.00;100101.78;5061698;28;20063;-70
2020/12/03 08:17:27;;;;;;;45.25;18.63;;;;;;;5.00;100.00;100099.09;5045855;28;20078;-69
2020/12/03 08:20:06;;;;;;;46.17;18.70;;;;;;;5.05;100.00;100102.16;5049876;28;20329;-69
2020/12/03 08:22:41;;;;;;;48.22;19.55;;;;;;;5.07;100.00;100100.19;5036572;28;20443;-69
2020/12/03 08:25:23;;;;;;;39.55;18.20;;;;;;;5.09;100.00;100099.06;5051927;28;20029;-69
2020/12/03 08:27:52;;;;;;;41.65;18.23;;;;;;;5.15;100.00;100085.16;5059703;28;20049;-69
2020/12/03 08:30:55;;;;;;;40.10;18.02;;;;;;;5.15;100.00;100079.84;5049760;28;20025;-69
2020/12/03 08:33:27;;;;;;;43.60;17.83;;;;;;;5.18;100.00;100082.22;5031454;28;20049;-69
2020/12/03 08:35:56;;;;;;;39.00;18.50;;;;;;;5.19;100.00;100085.72;5049434;28;20118;-69
2020/12/03 08:38:26;;;;;;;44.50;19.20;;;;;;;5.18;100.00;100086.69;5049484;28;20036;-69
2020/12/03 08:40:53;;;;;;;40.88;16.90;;;;;;;5.21;100.00;100083.72;5043367;28;20366;-69
2020/12/03 08:43:20;;;;;;;45.45;18.15;;;;;;;5.17;100.00;100080.53;5051574;28;20041;-69
2020/12/03 08:45:56;;;;;;;42.72;19.13;;;;;;;5.14;100.00;100075.50;5061375;28;20157;-69
2020/12/03 08:48:25;;;;;;;37.65;17.70;;;;;;;5.22;100.00;100082.75;5037292;28;20032;-69
2020/12/03 08:50:58;;;;;;;39.05;17.45;;;;;;;5.24;100.00;100078.09;5045084;28;20502;-70
2020/12/03 08:53:26;;;;;;;35.53;17.83;;;;;;;5.26;100.00;100077.94;5026035;28;20075;-69
2020/12/03 08:55:51;;;;;;;41.70;17.13;;;;;;;5.30;100.00;100060.72;5069510;28;20064;-69
2020/12/03 08:58:21;;;;;;;39.03;17.60;;;;;;;5.30;100.00;100055.41;5061705;28;20061;-69
2020/12/03 09:00:48;;;;;;;36.88;16.27;;;;;;;5.30;100.00;100042.09;5049396;28;20063;-69
2020/12/03 09:03:14;;;;;;;33.28;15.30;;;;;;;5.30;100.00;100032.28;5048788;28;20029;-69
2020/12/03 09:05:42;;;;;;;38.85;18.50;;;;;;;5.27;100.00;100018.44;5049444;28;20134;-69
2020/12/03 09:08:11;;;;;;;30.15;14.77;;;;;;;5.34;100.00;100024.84;5022199;28;20493;-69
2020/12/03 09:10:37;;;;;;;31.00;14.55;;;;;;;5.33;100.00;100013.38;5054309;28;20083;-69
2020/12/03 09:13:03;;;;;;;34.85;13.95;;;;;;;5.34;100.00;100023.03;5057132;28;20043;-69
2020/12/03 09:15:30;;;;;;;28.80;14.70;;;;;;;5.39;100.00;100022.56;5055403;28;20037;-69
2020/12/03 09:17:59;;;;;;;31.92;14.43;;;;;;;5.41;100.00;100005.44;5060502;28;20060;-69
2020/12/03 09:20:25;;;;;;;34.60;17.05;;;;;;;5.40;100.00;99997.63;5064440;28;20025;-69
2020/12/03 09:22:50;;;;;;;38.20;15.27;;;;;;;5.42;100.00;100004.50;5060022;28;20036;-69
2020/12/03 09:25:16;;;;;;;33.38;13.75;;;;;;;5.45;100.00;99996.19;5049632;28;20044;-69
2020/12/03 09:27:44;;;;;;;27.90;14.13;;;;;;;5.43;100.00;99984.03;5048506;28;20028;-69
2020/12/03 09:30:18;;;;;;;27.77;13.23;;;;;;;5.48;100.00;99988.91;5062325;28;20525;-69
2020/12/03 09:32:51;;;;;;;28.42;13.05;;;;;;;5.52;100.00;99980.44;5047980;28;20108;-69
2020/12/03 09:35:17;;;;;;;25.10;13.40;;;;;;;5.52;100.00;99974.28;5049150;28;20044;-68
2020/12/03 09:37:43;;;;;;;30.40;13.40;;;;;;;5.50;100.00;99966.47;5048189;28;20021;-70
2020/12/03 09:40:09;;;;;;;31.92;14.27;;;;;;;5.48;100.00;99964.97;5030867;28;20021;-69
2020/12/03 09:42:42;;;;;;;32.45;14.18;;;;;;;5.45;100.00;99953.63;5047803;28;20039;-69
2020/12/03 09:45:12;;;;;;;23.05;12.40;;;;;;;5.51;100.00;99951.31;5067679;28;20110;-69
2020/12/03 09:47:41;;;;;;;23.42;12.15;;;;;;;5.50;100.00;99947.84;5067977;28;20032;-69
2020/12/03 09:50:07;;;;;;;27.60;13.40;;;;;;;5.49;100.00;99945.34;5043976;28;20034;-69
2020/12/03 09:52:35;;;;;;;25.13;11.82;;;;;;;5.56;100.00;99944.53;5023124;28;20115;-68
2020/12/03 09:55:09;;;;;;;28.00;12.75;;;;;;;5.56;100.00;99939.22;5054315;28;20056;-69
2020/12/03 09:57:35;;;;;;;27.00;12.52;;;;;;;5.56;100.00;99931.25;5036091;28;20021;-69
2020/12/03 10:00:06;;;;;;;26.35;13.73;;;;;;;5.53;100.00;99925.41;5048779;28;20047;-69
2020/12/03 10:03:09;;;;;;;31.27;13.70;;;;;;;5.54;100.00;99935.06;5048088;28;20033;-69
2020/12/03 10:05:55;;;;;;;22.55;10.98;;;;;;;5.62;100.00;99929.78;5061837;28;20493;-69
2020/12/03 10:08:33;;;;;;;;;;;;;;;5.69;100.00;99922.84;5037992;28;20033;-69
2020/12/03 10:10:58;;;;;;;18.27;10.00;;;;;;;5.62;100.00;99917.34;5052587;28;19912;-69
2020/12/03 10:13:37;;;;;;;21.20;9.82;;;;;;;5.67;100.00;99912.38;5068119;28;20028;-69
2020/12/03 10:16:07;;;;;;;19.83;9.02;;;;;;;5.65;100.00;99897.53;5042459;28;20042;-69
2020/12/03 10:18:37;;;;;;;25.80;11.02;;;;;;;5.59;100.00;99892.84;5053642;28;20618;-69
2020/12/03 10:21:05;;;;;;;24.75;11.15;;;;;;;5.49;100.00;99892.13;5068121;28;20489;-69
2020/12/03 10:23:31;;;;;;;19.95;9.50;;;;;;;5.49;100.00;99884.97;5049314;28;20125;-69
2020/12/03 10:26:06;;;;;;;16.95;9.18;;;;;;;5.42;100.00;99874.16;5048552;28;20533;-68
2020/12/03 10:28:40;;;;;;;24.98;10.13;;;;;;;5.41;100.00;99861.81;5060715;28;20046;-69
2020/12/03 10:31:07;;;;;;;23.83;9.55;;;;;;;5.49;100.00;99863.69;5047647;28;20153;-69
2020/12/03 10:33:35;;;;;;;19.58;9.05;;;;;;;5.50;100.00;99872.50;5029992;28;20393;-69
2020/12/03 10:36:09;;;;;;;19.33;8.70;;;;;;;5.51;100.00;99871.50;5048580;28;20048;-69
2020/12/03 10:38:43;;;;;;;23.33;10.38;;;;;;;5.51;100.00;99863.53;5046946;28;20028;-69
2020/12/03 10:41:10;;;;;;;21.88;10.18;;;;;;;5.43;100.00;99859.84;5053716;28;20120;-69
2020/12/03 10:43:39;;;;;;;24.08;11.85;;;;;;;5.38;100.00;99848.00;5053558;28;20047;-69
2020/12/03 10:46:11;;;;;;;25.58;10.88;;;;;;;5.36;100.00;99842.81;5067608;28;20082;-69
2020/12/03 10:48:40;;;;;;;25.83;10.45;;;;;;;5.32;100.00;99835.31;5066884;28;20035;-68
2020/12/03 10:51:08;;;;;;;30.23;11.35;;;;;;;5.33;100.00;99839.66;5026484;28;20029;-69
2020/12/03 10:53:35;;;;;;;26.73;11.82;;;;;;;5.36;100.00;99834.00;5054649;28;20029;-69
2020/12/03 10:56:03;;;;;;;24.17;11.02;;;;;;;5.42;100.00;99822.75;5053834;28;20483;-68
2020/12/03 10:58:39;;;;;;;20.90;10.73;;;;;;;5.40;100.00;99814.94;5066832;28;20036;-69
2020/12/03 11:01:07;;;;;;;27.92;10.30;;;;;;;5.38;100.00;99805.47;5067188;28;20042;-68
2020/12/03 11:03:36;;;;;;;21.05;10.10;;;;;;;5.37;100.00;99804.63;5067125;28;20040;-69
2020/12/03 11:06:02;;;;;;;26.65;11.02;;;;;;;5.46;100.00;99794.84;5036863;28;20098;-69
2020/12/03 11:08:35;;;;;;;24.00;11.02;;;;;;;5.48;100.00;99776.06;5056551;28;20041;-69
2020/12/03 11:11:02;;;;;;;26.05;9.82;;;;;;;5.41;100.00;99778.53;5065470;28;20115;-69
2020/12/03 11:13:28;;;;;;;19.90;9.45;;;;;;;5.44;100.00;99778.22;5055433;28;20055;-69
2020/12/03 11:15:57;;;;;;;21.40;9.27;;;;;;;5.45;100.00;99770.06;5064476;28;20028;-69
2020/12/03 11:18:23;;;;;;;18.85;9.68;;;;;;;5.44;100.00;99775.56;5057773;28;20175;-69
2020/12/03 11:20:53;;;;;;;21.88;9.40;;;;;;;5.48;100.00;99762.78;5051404;28;20025;-70
2020/12/03 11:23:22;;;;;;;22.13;9.90;;;;;;;5.50;100.00;99755.47;5063986;28;20062;-70
2020/12/03 11:25:52;;;;;;;18.13;8.70;;;;;;;5.47;100.00;99743.28;5037356;28;20404;-71
2020/12/03 11:28:29;;;;;;;19.98;9.02;;;;;;;5.53;100.00;99747.16;5050572;28;20120;-69
2020/12/03 11:31:02;;;;;;;17.17;9.00;;;;;;;5.52;100.00;99732.19;5050583;28;20067;-69